sensor_id;sensor_type;location;lat;lon;timestamp;pressure;altitude;pressure_sealevel;temperature;humidity
54948;BME280;41113;41.882;12.530;2023-02-19T00:01:33;102375.47;;;9.68;81.61
54948;BME280;41113;41.882;12.530;2023-02-19T00:04:02;102371.34;;;9.62;81.80
54948;BME280;41113;41.882;12.530;2023-02-19T00:06:31;102368.75;;;9.61;81.93
54948;BME280;41113;41.882;12.530;2023-02-19T00:08:56;102372.13;;;9.64;81.75
54948;BME280;41113;41.882;12.530;2023-02-19T00:11:24;102368.56;;;9.64;81.53
54948;BME280;41113;41.882;12.530;2023-02-19T00:13:51;102373.06;;;9.63;81.61
54948;BME280;41113;41.882;12.530;2023-02-19T00:16:19;102366.84;;;9.63;82.22
54948;BME280;41113;41.882;12.530;2023-02-19T00:18:45;102364.06;;;9.64;81.53
54948;BME280;41113;41.882;12.530;2023-02-19T00:21:12;102363.03;;;9.67;81.35
54948;BME280;41113;41.882;12.530;2023-02-19T00:23:38;102363.72;;;9.71;81.79
54948;BME280;41113;41.882;12.530;2023-02-19T00:26:08;102353.94;;;9.70;81.90
54948;BME280;41113;41.882;12.530;2023-02-19T00:28:34;102352.09;;;9.70;82.00
54948;BME280;41113;41.882;12.530;2023-02-19T00:31:15;102351.25;;;9.70;82.14
54948;BME280;41113;41.882;12.530;2023-02-19T00:33:42;102347.03;;;9.65;82.74
54948;BME280;41113;41.882;12.530;2023-02-19T00:36:07;102352.97;;;9.71;82.21
54948;BME280;41113;41.882;12.530;2023-02-19T00:38:37;102352.09;;;9.70;82.20
54948;BME280;41113;41.882;12.530;2023-02-19T00:41:03;102345.78;;;9.71;82.10
54948;BME280;41113;41.882;12.530;2023-02-19T00:46:50;102341.09;;;9.75;82.09
54948;BME280;41113;41.882;12.530;2023-02-19T00:49:21;102347.09;;;9.80;81.42
54948;BME280;41113;41.882;12.530;2023-02-19T00:51:48;102341.91;;;9.77;81.88
54948;BME280;41113;41.882;12.530;2023-02-19T00:54:15;102340.78;;;9.81;81.35
54948;BME280;41113;41.882;12.530;2023-02-19T00:56:41;102338.09;;;9.81;81.40
54948;BME280;41113;41.882;12.530;2023-02-19T00:59:06;102326.81;;;9.74;81.77
54948;BME280;41113;41.882;12.530;2023-02-19T01:01:32;102333.44;;;9.68;82.15
54948;BME280;41113;41.882;12.530;2023-02-19T01:03:57;102337.25;;;9.64;81.90
54948;BME280;41113;41.882;12.530;2023-02-19T01:06:23;102329.00;;;9.67;81.34
54948;BME280;41113;41.882;12.530;2023-02-19T01:08:49;102328.91;;;9.69;81.21
54948;BME280;41113;41.882;12.530;2023-02-19T01:11:15;102319.06;;;9.70;81.04
54948;BME280;41113;41.882;12.530;2023-02-19T01:13:41;102321.91;;;9.66;80.52
54948;BME280;41113;41.882;12.530;2023-02-19T01:16:19;102315.59;;;9.67;80.61
54948;BME280;41113;41.882;12.530;2023-02-19T01:18:45;102320.59;;;9.74;80.43
54948;BME280;41113;41.882;12.530;2023-02-19T01:21:15;102322.31;;;9.75;80.07
54948;BME280;41113;41.882;12.530;2023-02-19T01:23:41;102309.38;;;9.67;80.39
54948;BME280;41113;41.882;12.530;2023-02-19T01:26:08;102317.31;;;9.68;80.21
54948;BME280;41113;41.882;12.530;2023-02-19T01:28:35;102313.78;;;9.68;80.68
54948;BME280;41113;41.882;12.530;2023-02-19T01:31:06;102305.63;;;9.70;80.42
54948;BME280;41113;41.882;12.530;2023-02-19T01:33:32;102315.59;;;9.67;80.51
54948;BME280;41113;41.882;12.530;2023-02-19T01:35:58;102305.06;;;9.64;81.08
54948;BME280;41113;41.882;12.530;2023-02-19T01:38:24;102312.50;;;9.59;80.90
54948;BME280;41113;41.882;12.530;2023-02-19T01:40:57;102306.50;;;9.70;80.57
54948;BME280;41113;41.882;12.530;2023-02-19T01:43:23;102304.50;;;9.74;80.48
54948;BME280;41113;41.882;12.530;2023-02-19T01:45:49;102304.88;;;9.67;80.57
54948;BME280;41113;41.882;12.530;2023-02-19T01:48:22;102306.22;;;9.75;80.14
54948;BME280;41113;41.882;12.530;2023-02-19T01:50:52;102299.47;;;9.83;79.86
54948;BME280;41113;41.882;12.530;2023-02-19T01:53:21;102299.19;;;9.88;79.93
54948;BME280;41113;41.882;12.530;2023-02-19T01:55:50;102296.69;;;9.85;79.95
54948;BME280;41113;41.882;12.530;2023-02-19T01:58:17;102298.41;;;9.86;80.43
54948;BME280;41113;41.882;12.530;2023-02-19T02:00:43;102294.78;;;9.87;80.25
54948;BME280;41113;41.882;12.530;2023-02-19T02:03:09;102292.88;;;9.89;80.06
54948;BME280;41113;41.882;12.530;2023-02-19T02:08:18;102285.41;;;9.94;79.77
54948;BME280;41113;41.882;12.530;2023-02-19T02:11:03;102274.66;;;9.94;79.84
54948;BME280;41113;41.882;12.530;2023-02-19T02:13:29;102278.31;;;9.93;80.07
54948;BME280;41113;41.882;12.530;2023-02-19T02:18:45;102270.63;;;10.01;79.90
54948;BME280;41113;41.882;12.530;2023-02-19T02:26:49;102267.38;;;9.96;80.60
54948;BME280;41113;41.882;12.530;2023-02-19T02:29:50;102265.94;;;9.90;81.30
54948;BME280;41113;41.882;12.530;2023-02-19T02:32:43;102266.69;;;9.92;81.45
54948;BME280;41113;41.882;12.530;2023-02-19T02:35:22;102262.00;;;9.96;81.68
54948;BME280;41113;41.882;12.530;2023-02-19T02:37:54;102269.09;;;9.97;81.91
54948;BME280;41113;41.882;12.530;2023-02-19T02:40:21;102255.78;;;9.95;82.43
54948;BME280;41113;41.882;12.530;2023-02-19T02:42:47;102258.56;;;9.94;82.45
54948;BME280;41113;41.882;12.530;2023-02-19T02:45:45;102248.41;;;9.99;82.54
54948;BME280;41113;41.882;12.530;2023-02-19T02:53:47;102241.31;;;9.84;84.70
54948;BME280;41113;41.882;12.530;2023-02-19T02:56:33;102237.47;;;9.88;84.04
54948;BME280;41113;41.882;12.530;2023-02-19T02:59:01;102234.78;;;9.88;84.24
54948;BME280;41113;41.882;12.530;2023-02-19T03:01:56;102235.66;;;9.88;84.32
54948;BME280;41113;41.882;12.530;2023-02-19T03:04:56;102228.47;;;9.89;84.37
54948;BME280;41113;41.882;12.530;2023-02-19T03:11:00;102237.47;;;9.88;84.98
54948;BME280;41113;41.882;12.530;2023-02-19T03:13:50;102235.38;;;9.93;84.72
54948;BME280;41113;41.882;12.530;2023-02-19T03:16:37;102240.72;;;9.93;85.09
54948;BME280;41113;41.882;12.530;2023-02-19T03:19:24;102235.16;;;9.82;87.19
54948;BME280;41113;41.882;12.530;2023-02-19T03:21:58;102232.69;;;9.79;87.57
54948;BME280;41113;41.882;12.530;2023-02-19T03:24:30;102230.44;;;9.71;89.95
54948;BME280;41113;41.882;12.530;2023-02-19T03:27:17;102229.75;;;9.67;88.55
54948;BME280;41113;41.882;12.530;2023-02-19T03:29:45;102230.44;;;9.71;87.90
54948;BME280;41113;41.882;12.530;2023-02-19T03:32:17;102233.03;;;9.73;87.75
54948;BME280;41113;41.882;12.530;2023-02-19T03:34:51;102238.03;;;9.79;86.78
54948;BME280;41113;41.882;12.530;2023-02-19T03:37:31;102239.56;;;9.83;86.30
54948;BME280;41113;41.882;12.530;2023-02-19T03:39:59;102236.72;;;9.86;86.58
54948;BME280;41113;41.882;12.530;2023-02-19T03:42:41;102234.69;;;9.89;86.00
54948;BME280;41113;41.882;12.530;2023-02-19T03:45:25;102237.84;;;9.96;85.90
54948;BME280;41113;41.882;12.530;2023-02-19T03:48:01;102232.69;;;9.93;86.26
54948;BME280;41113;41.882;12.530;2023-02-19T03:50:42;102238.03;;;9.93;86.28
54948;BME280;41113;41.882;12.530;2023-02-19T04:01:43;102238.16;;;9.91;87.34
54948;BME280;41113;41.882;12.530;2023-02-19T04:04:38;102234.41;;;9.94;86.98
54948;BME280;41113;41.882;12.530;2023-02-19T04:07:05;102236.03;;;9.96;87.26
54948;BME280;41113;41.882;12.530;2023-02-19T04:09:42;102233.44;;;9.95;87.36
54948;BME280;41113;41.882;12.530;2023-02-19T04:12:10;102234.50;;;9.92;87.73
54948;BME280;41113;41.882;12.530;2023-02-19T04:14:41;102238.81;;;9.95;87.28
54948;BME280;41113;41.882;12.530;2023-02-19T04:17:16;102237.09;;;9.94;88.64
54948;BME280;41113;41.882;12.530;2023-02-19T04:19:45;102233.84;;;9.89;88.74
54948;BME280;41113;41.882;12.530;2023-02-19T04:22:14;102227.41;;;9.77;91.48
54948;BME280;41113;41.882;12.530;2023-02-19T04:24:45;102234.16;;;9.68;93.49
54948;BME280;41113;41.882;12.530;2023-02-19T04:27:12;102227.25;;;9.64;94.50
54948;BME280;41113;41.882;12.530;2023-02-19T04:29:37;102229.00;;;9.65;93.50
54948;BME280;41113;41.882;12.530;2023-02-19T04:32:03;102225.94;;;9.72;92.00
54948;BME280;41113;41.882;12.530;2023-02-19T04:34:29;102220.22;;;9.78;91.40
54948;BME280;41113;41.882;12.530;2023-02-19T04:36:55;102226.59;;;9.75;94.01
54948;BME280;41113;41.882;12.530;2023-02-19T04:39:20;102216.91;;;9.73;93.49
54948;BME280;41113;41.882;12.530;2023-02-19T04:41:46;102224.19;;;9.71;94.22
54948;BME280;41113;41.882;12.530;2023-02-19T04:44:12;102218.84;;;9.71;92.39
54948;BME280;41113;41.882;12.530;2023-02-19T04:46:39;102220.03;;;9.81;91.43
54948;BME280;41113;41.882;12.530;2023-02-19T04:49:04;102216.38;;;9.82;91.80
54948;BME280;41113;41.882;12.530;2023-02-19T04:51:30;102219.34;;;9.77;91.45
54948;BME280;41113;41.882;12.530;2023-02-19T04:53:56;102218.84;;;9.71;93.83
54948;BME280;41113;41.882;12.530;2023-02-19T04:56:21;102210.88;;;9.69;92.58
54948;BME280;41113;41.882;12.530;2023-02-19T04:58:47;102217.31;;;9.66;92.58
54948;BME280;41113;41.882;12.530;2023-02-19T05:01:12;102221.13;;;9.62;92.78
54948;BME280;41113;41.882;12.530;2023-02-19T05:03:38;102224.59;;;9.64;92.33
54948;BME280;41113;41.882;12.530;2023-02-19T05:06:10;102219.03;;;9.67;91.20
54948;BME280;41113;41.882;12.530;2023-02-19T05:08:36;102227.94;;;9.68;91.44
54948;BME280;41113;41.882;12.530;2023-02-19T05:11:03;102226.00;;;9.56;91.78
54948;BME280;41113;41.882;12.530;2023-02-19T05:13:29;102228.47;;;9.45;91.76
54948;BME280;41113;41.882;12.530;2023-02-19T05:16:06;102231.41;;;9.40;91.87
54948;BME280;41113;41.882;12.530;2023-02-19T05:18:33;102226.91;;;9.41;91.57
54948;BME280;41113;41.882;12.530;2023-02-19T05:20:59;102227.44;;;9.47;90.92
54948;BME280;41113;41.882;12.530;2023-02-19T05:23:25;102227.06;;;9.53;90.21
54948;BME280;41113;41.882;12.530;2023-02-19T05:25:51;102218.44;;;9.48;90.35
54948;BME280;41113;41.882;12.530;2023-02-19T05:28:17;102223.13;;;9.45;90.29
54948;BME280;41113;41.882;12.530;2023-02-19T05:30:44;102228.28;;;9.48;90.31
54948;BME280;41113;41.882;12.530;2023-02-19T05:33:10;102230.50;;;9.55;89.69
54948;BME280;41113;41.882;12.530;2023-02-19T05:35:42;102233.78;;;9.60;88.84
54948;BME280;41113;41.882;12.530;2023-02-19T05:38:09;102229.75;;;9.67;88.51
54948;BME280;41113;41.882;12.530;2023-02-19T05:40:35;102233.03;;;9.73;88.28
54948;BME280;41113;41.882;12.530;2023-02-19T05:43:00;102232.06;;;9.74;87.79
54948;BME280;41113;41.882;12.530;2023-02-19T05:45:26;102228.50;;;9.73;87.63
54948;BME280;41113;41.882;12.530;2023-02-19T05:47:51;102232.72;;;9.63;88.31
54948;BME280;41113;41.882;12.530;2023-02-19T05:50:17;102226.69;;;9.59;88.32
54948;BME280;41113;41.882;12.530;2023-02-19T05:52:42;102236.06;;;9.52;88.72
54948;BME280;41113;41.882;12.530;2023-02-19T05:55:09;102236.06;;;9.52;88.62
54948;BME280;41113;41.882;12.530;2023-02-19T05:57:41;102229.16;;;9.48;88.76
54948;BME280;41113;41.882;12.530;2023-02-19T06:00:11;102227.44;;;9.47;88.53
54948;BME280;41113;41.882;12.530;2023-02-19T06:02:37;102226.09;;;9.54;88.20
54948;BME280;41113;41.882;12.530;2023-02-19T06:05:03;102231.38;;;9.56;88.09
54948;BME280;41113;41.882;12.530;2023-02-19T06:07:30;102230.31;;;9.58;87.97
54948;BME280;41113;41.882;12.530;2023-02-19T06:09:55;102224.97;;;9.58;88.31
54948;BME280;41113;41.882;12.530;2023-02-19T06:12:21;102223.41;;;9.54;88.20
54948;BME280;41113;41.882;12.530;2023-02-19T06:14:47;102224.28;;;9.55;88.14
54948;BME280;41113;41.882;12.530;2023-02-19T06:17:13;102224.38;;;9.53;88.00
54948;BME280;41113;41.882;12.530;2023-02-19T06:19:39;102225.16;;;9.55;87.92
54948;BME280;41113;41.882;12.530;2023-02-19T06:22:05;102233.19;;;9.55;88.03
54948;BME280;41113;41.882;12.530;2023-02-19T06:24:31;102227.06;;;9.53;88.29
54948;BME280;41113;41.882;12.530;2023-02-19T06:26:56;102227.25;;;9.50;87.97
54948;BME280;41113;41.882;12.530;2023-02-19T06:29:23;102232.22;;;9.56;87.79
54948;BME280;41113;41.882;12.530;2023-02-19T06:31:48;102227.06;;;9.53;87.94
54948;BME280;41113;41.882;12.530;2023-02-19T06:34:14;102226.00;;;9.56;87.96
54948;BME280;41113;41.882;12.530;2023-02-19T06:36:39;102227.06;;;9.53;87.69
54948;BME280;41113;41.882;12.530;2023-02-19T06:39:05;102233.56;;;9.49;88.24
54948;BME280;41113;41.882;12.530;2023-02-19T06:41:31;102236.44;;;9.46;88.49
54948;BME280;41113;41.882;12.530;2023-02-19T06:43:57;102232.13;;;9.44;88.42
54948;BME280;41113;41.882;12.530;2023-02-19T06:46:22;102227.63;;;9.44;88.31
54948;BME280;41113;41.882;12.530;2023-02-19T06:48:48;102235.22;;;9.36;88.18
54948;BME280;41113;41.882;12.530;2023-02-19T06:51:16;102244.03;;;9.38;88.33
54948;BME280;41113;41.882;12.530;2023-02-19T06:53:48;102244.03;;;9.38;88.39
54948;BME280;41113;41.882;12.530;2023-02-19T06:56:34;102243.84;;;9.41;88.12
54948;BME280;41113;41.882;12.530;2023-02-19T06:59:01;102239.13;;;9.46;88.18
54948;BME280;41113;41.882;12.530;2023-02-19T07:01:29;102238.94;;;9.49;88.05
54948;BME280;41113;41.882;12.530;2023-02-19T07:03:55;102234.34;;;9.51;88.10
54948;BME280;41113;41.882;12.530;2023-02-19T07:06:22;102232.31;;;9.55;87.79
54948;BME280;41113;41.882;12.530;2023-02-19T07:08:48;102229.84;;;9.52;86.86
54948;BME280;41113;41.882;12.530;2023-02-19T07:11:14;102232.78;;;9.47;86.42
54948;BME280;41113;41.882;12.530;2023-02-19T07:13:39;102226.91;;;9.41;86.34
54948;BME280;41113;41.882;12.530;2023-02-19T07:16:07;102224.13;;;9.42;86.36
54948;BME280;41113;41.882;12.530;2023-02-19T07:18:33;102223.78;;;9.48;86.16
54948;BME280;41113;41.882;12.530;2023-02-19T07:21:10;102218.06;;;9.54;86.12
54948;BME280;41113;41.882;12.530;2023-02-19T07:23:36;102213.47;;;9.56;85.23
54948;BME280;41113;41.882;12.530;2023-02-19T07:26:03;102224.78;;;9.61;84.65
54948;BME280;41113;41.882;12.530;2023-02-19T07:28:29;102218.06;;;9.54;84.75
54948;BME280;41113;41.882;12.530;2023-02-19T07:30:59;102223.13;;;9.59;85.01
54948;BME280;41113;41.882;12.530;2023-02-19T07:33:25;102220.25;;;9.62;84.82
54948;BME280;41113;41.882;12.530;2023-02-19T07:35:51;102219.22;;;9.64;84.77
54948;BME280;41113;41.882;12.530;2023-02-19T07:38:17;102216.25;;;9.69;84.76
54948;BME280;41113;41.882;12.530;2023-02-19T07:40:57;102213.47;;;9.71;84.79
54948;BME280;41113;41.882;12.530;2023-02-19T07:43:23;102212.31;;;9.75;85.11
54948;BME280;41113;41.882;12.530;2023-02-19T07:45:49;102212.56;;;9.86;84.81
54948;BME280;41113;41.882;12.530;2023-02-19T07:48:14;102216.78;;;9.90;84.54
54948;BME280;41113;41.882;12.530;2023-02-19T07:50:40;102210.81;;;9.99;84.45
54948;BME280;41113;41.882;12.530;2023-02-19T07:53:05;102211.91;;;10.11;84.08
54948;BME280;41113;41.882;12.530;2023-02-19T07:55:32;102211.31;;;10.20;83.59
54948;BME280;41113;41.882;12.530;2023-02-19T07:57:58;102204.34;;;10.32;83.42
54948;BME280;41113;41.882;12.530;2023-02-19T08:00:23;102210.00;;;10.27;83.35
54948;BME280;41113;41.882;12.530;2023-02-19T08:02:50;102203.34;;;10.18;84.01
54948;BME280;41113;41.882;12.530;2023-02-19T08:05:30;102201.38;;;10.22;83.91
54948;BME280;41113;41.882;12.530;2023-02-19T08:07:57;102208.53;;;10.36;83.66
54948;BME280;41113;41.882;12.530;2023-02-19T08:10:23;102214.13;;;10.47;83.38
54948;BME280;41113;41.882;12.530;2023-02-19T08:13:10;102212.44;;;10.58;82.87
54948;BME280;41113;41.882;12.530;2023-02-19T08:15:50;102210.50;;;10.75;82.52
54948;BME280;41113;41.882;12.530;2023-02-19T08:18:17;102209.81;;;10.85;82.12
54948;BME280;41113;41.882;12.530;2023-02-19T08:20:44;102197.66;;;10.93;81.71
54948;BME280;41113;41.882;12.530;2023-02-19T08:23:10;102198.44;;;10.95;81.67
54948;BME280;41113;41.882;12.530;2023-02-19T08:25:36;102199.09;;;10.98;81.91
54948;BME280;41113;41.882;12.530;2023-02-19T08:28:02;102201.28;;;11.06;81.84
54948;BME280;41113;41.882;12.530;2023-02-19T08:30:29;102197.00;;;11.16;81.65
54948;BME280;41113;41.882;12.530;2023-02-19T08:32:56;102196.38;;;11.25;81.11
54948;BME280;41113;41.882;12.530;2023-02-19T08:35:22;102186.72;;;11.35;81.02
54948;BME280;41113;41.882;12.530;2023-02-19T08:37:47;102185.19;;;11.31;81.16
54948;BME280;41113;41.882;12.530;2023-02-19T08:40:12;102197.00;;;11.16;82.21
54948;BME280;41113;41.882;12.530;2023-02-19T08:42:38;102181.97;;;11.26;82.17
54948;BME280;41113;41.882;12.530;2023-02-19T08:45:04;102176.06;;;11.34;81.99
54948;BME280;41113;41.882;12.530;2023-02-19T08:47:30;102176.81;;;11.36;81.72
54948;BME280;41113;41.882;12.530;2023-02-19T08:49:55;102174.22;;;11.34;81.70
54948;BME280;41113;41.882;12.530;2023-02-19T08:52:21;102182.19;;;11.23;82.22
54948;BME280;41113;41.882;12.530;2023-02-19T08:54:46;102189.91;;;11.15;83.00
54948;BME280;41113;41.882;12.530;2023-02-19T08:57:11;102190.13;;;11.25;83.12
54948;BME280;41113;41.882;12.530;2023-02-19T08:59:37;102185.34;;;11.42;82.41
54948;BME280;41113;41.882;12.530;2023-02-19T09:02:02;102178.38;;;11.52;81.56
54948;BME280;41113;41.882;12.530;2023-02-19T09:04:27;102175.13;;;11.47;81.49
54948;BME280;41113;41.882;12.530;2023-02-19T09:06:53;102177.59;;;11.50;81.79
54948;BME280;41113;41.882;12.530;2023-02-19T09:09:18;102176.84;;;11.61;81.37
54948;BME280;41113;41.882;12.530;2023-02-19T09:11:44;102171.59;;;11.60;81.25
54948;BME280;41113;41.882;12.530;2023-02-19T09:14:09;102169.56;;;11.76;80.91
54948;BME280;41113;41.882;12.530;2023-02-19T09:16:35;102166.69;;;11.79;80.44
54948;BME280;41113;41.882;12.530;2023-02-19T09:19:04;102167.00;;;11.87;80.24
54948;BME280;41113;41.882;12.530;2023-02-19T09:21:30;102162.34;;;12.02;79.93
54948;BME280;41113;41.882;12.530;2023-02-19T09:23:55;102162.66;;;12.23;79.41
54948;BME280;41113;41.882;12.530;2023-02-19T09:26:21;102149.84;;;12.50;78.71
54948;BME280;41113;41.882;12.530;2023-02-19T09:28:46;102153.94;;;12.80;78.17
54948;BME280;41113;41.882;12.530;2023-02-19T09:31:13;102147.72;;;13.14;76.50
54948;BME280;41113;41.882;12.530;2023-02-19T09:33:43;102146.50;;;13.53;76.02
54948;BME280;41113;41.882;12.530;2023-02-19T09:36:10;102164.97;;;13.70;75.26
54948;BME280;41113;41.882;12.530;2023-02-19T09:38:35;102157.72;;;13.82;75.22
54948;BME280;41113;41.882;12.530;2023-02-19T09:41:13;102158.72;;;13.92;74.79
54948;BME280;41113;41.882;12.530;2023-02-19T09:43:40;102152.59;;;14.01;74.69
54948;BME280;41113;41.882;12.530;2023-02-19T09:48:47;102157.25;;;14.11;75.13
54948;BME280;41113;41.882;12.530;2023-02-19T09:51:14;102151.09;;;14.20;74.67
54948;BME280;41113;41.882;12.530;2023-02-19T09:53:43;102149.88;;;14.35;74.53
54948;BME280;41113;41.882;12.530;2023-02-19T09:56:10;102149.38;;;14.41;73.79
54948;BME280;41113;41.882;12.530;2023-02-19T09:58:56;102148.03;;;14.47;73.48
54948;BME280;41113;41.882;12.530;2023-02-19T10:01:25;102150.81;;;14.68;73.80
54948;BME280;41113;41.882;12.530;2023-02-19T10:03:52;102143.59;;;14.89;73.04
54948;BME280;41113;41.882;12.530;2023-02-19T10:06:23;102136.81;;;14.94;72.78
54948;BME280;41113;41.882;12.530;2023-02-19T10:11:38;102134.75;;;14.87;73.22
54948;BME280;41113;41.882;12.530;2023-02-19T10:16:30;102130.31;;;14.97;73.11
54948;BME280;41113;41.882;12.530;2023-02-19T10:18:56;102126.19;;;14.82;73.56
54948;BME280;41113;41.882;12.530;2023-02-19T10:21:24;102138.75;;;14.72;73.70
54948;BME280;41113;41.882;12.530;2023-02-19T10:23:52;102132.88;;;14.67;73.78
54948;BME280;41113;41.882;12.530;2023-02-19T10:26:18;102130.13;;;14.78;73.90
54948;BME280;41113;41.882;12.530;2023-02-19T10:28:44;102131.84;;;14.79;74.02
54948;BME280;41113;41.882;12.530;2023-02-19T10:31:18;102124.53;;;14.90;73.61
54948;BME280;41113;41.882;12.530;2023-02-19T10:33:50;102129.53;;;15.06;72.96
54948;BME280;41113;41.882;12.530;2023-02-19T10:36:46;102125.25;;;15.04;73.04
54948;BME280;41113;41.882;12.530;2023-02-19T10:41:50;102131.13;;;15.50;71.86
54948;BME280;41113;41.882;12.530;2023-02-19T10:44:24;102122.13;;;15.50;71.04
54948;BME280;41113;41.882;12.530;2023-02-19T10:46:56;102121.22;;;15.40;72.02
54948;BME280;41113;41.882;12.530;2023-02-19T10:49:35;102132.97;;;15.50;70.85
54948;BME280;41113;41.882;12.530;2023-02-19T10:52:14;102128.50;;;15.39;71.63
54948;BME280;41113;41.882;12.530;2023-02-19T10:54:48;102135.75;;;15.39;72.14
54948;BME280;41113;41.882;12.530;2023-02-19T10:59:53;102132.91;;;15.40;71.87
54948;BME280;41113;41.882;12.530;2023-02-19T11:02:22;102136.34;;;15.42;72.04
54948;BME280;41113;41.882;12.530;2023-02-19T11:05:17;102128.22;;;15.21;71.42
54948;BME280;41113;41.882;12.530;2023-02-19T11:07:56;102123.66;;;15.22;72.21
54948;BME280;41113;41.882;12.530;2023-02-19T11:12:51;102118.47;;;15.30;72.16
54948;BME280;41113;41.882;12.530;2023-02-19T11:20:21;102102.53;;;15.37;72.14
54948;BME280;41113;41.882;12.530;2023-02-19T11:22:46;102094.44;;;15.37;71.95
54948;BME280;41113;41.882;12.530;2023-02-19T11:28:02;102092.91;;;15.44;70.83
54948;BME280;41113;41.882;12.530;2023-02-19T11:30:45;102087.66;;;15.52;71.04
54948;BME280;41113;41.882;12.530;2023-02-19T11:35:44;102086.66;;;15.53;71.00
54948;BME280;41113;41.882;12.530;2023-02-19T11:38:12;102083.09;;;15.52;71.04
54948;BME280;41113;41.882;12.530;2023-02-19T11:40:53;102080.81;;;15.48;70.95
54948;BME280;41113;41.882;12.530;2023-02-19T11:46:16;102073.53;;;15.27;71.63
54948;BME280;41113;41.882;12.530;2023-02-19T11:54:32;102056.84;;;15.22;72.36
54948;BME280;41113;41.882;12.530;2023-02-19T11:57:17;102052.69;;;15.18;72.00
54948;BME280;41113;41.882;12.530;2023-02-19T12:00:20;102048.72;;;15.22;72.33
54948;BME280;41113;41.882;12.530;2023-02-19T12:05:37;102054.16;;;15.22;72.45
54948;BME280;41113;41.882;12.530;2023-02-19T12:16:35;102046.94;;;14.91;74.25
54948;BME280;41113;41.882;12.530;2023-02-19T12:33:42;102041.06;;;14.86;75.07
54948;BME280;41113;41.882;12.530;2023-02-19T12:44:11;102025.72;;;15.07;73.71
54948;BME280;41113;41.882;12.530;2023-02-19T12:46:47;102021.66;;;15.22;73.15
54948;BME280;41113;41.882;12.530;2023-02-19T12:49:34;102013.78;;;15.40;72.47
54948;BME280;41113;41.882;12.530;2023-02-19T12:52:16;102016.09;;;15.45;71.63
54948;BME280;41113;41.882;12.530;2023-02-19T12:54:45;102007.53;;;15.40;71.85
54948;BME280;41113;41.882;12.530;2023-02-19T12:57:18;102004.78;;;15.30;71.62
54948;BME280;41113;41.882;12.530;2023-02-19T12:59:48;101996.59;;;15.20;72.04
54948;BME280;41113;41.882;12.530;2023-02-19T13:07:27;101996.00;;;15.17;71.93
54948;BME280;41113;41.882;12.530;2023-02-19T13:09:59;101997.13;;;15.14;70.91
54948;BME280;41113;41.882;12.530;2023-02-19T13:12:34;101999.13;;;15.12;71.65
54948;BME280;41113;41.882;12.530;2023-02-19T13:15:08;101988.44;;;15.11;71.68
54948;BME280;41113;41.882;12.530;2023-02-19T13:17:51;101984.88;;;15.10;71.49
54948;BME280;41113;41.882;12.530;2023-02-19T13:20:28;101975.22;;;15.17;71.93
54948;BME280;41113;41.882;12.530;2023-02-19T13:23:16;101972.09;;;15.22;71.66
54948;BME280;41113;41.882;12.530;2023-02-19T13:29:15;101967.53;;;15.22;71.93
54948;BME280;41113;41.882;12.530;2023-02-19T13:37:22;101963.50;;;15.07;72.02
54948;BME280;41113;41.882;12.530;2023-02-19T13:39:50;101960.06;;;15.05;72.06
54948;BME280;41113;41.882;12.530;2023-02-19T13:42:30;101951.22;;;15.03;72.37
54948;BME280;41113;41.882;12.530;2023-02-19T13:44:57;101947.78;;;15.01;72.21
54948;BME280;41113;41.882;12.530;2023-02-19T13:50:20;101945.41;;;14.87;72.63
54948;BME280;41113;41.882;12.530;2023-02-19T13:52:46;101936.84;;;14.82;73.12
54948;BME280;41113;41.882;12.530;2023-02-19T14:01:02;101927.84;;;14.72;74.14
54948;BME280;41113;41.882;12.530;2023-02-19T14:06:06;101916.84;;;14.63;74.23
54948;BME280;41113;41.882;12.530;2023-02-19T14:08:55;101919.91;;;14.59;74.10
54948;BME280;41113;41.882;12.530;2023-02-19T14:17:03;101909.31;;;14.46;74.82
54948;BME280;41113;41.882;12.530;2023-02-19T14:19:48;101911.50;;;14.41;75.42
54948;BME280;41113;41.882;12.530;2023-02-19T14:27:49;101908.63;;;14.33;75.56
54948;BME280;41113;41.882;12.530;2023-02-19T14:30:16;101912.53;;;14.29;75.66
54948;BME280;41113;41.882;12.530;2023-02-19T14:32:42;101904.69;;;14.26;75.87
54948;BME280;41113;41.882;12.530;2023-02-19T14:35:22;101901.25;;;14.24;76.37
54948;BME280;41113;41.882;12.530;2023-02-19T14:37:50;101899.56;;;14.23;76.03
54948;BME280;41113;41.882;12.530;2023-02-19T14:40:28;101894.41;;;14.20;76.15
54948;BME280;41113;41.882;12.530;2023-02-19T14:42:56;101896.97;;;14.21;76.28
54948;BME280;41113;41.882;12.530;2023-02-19T14:45:23;101890.97;;;14.18;76.25
54948;BME280;41113;41.882;12.530;2023-02-19T14:47:52;101902.78;;;14.17;76.29
54948;BME280;41113;41.882;12.530;2023-02-19T14:50:26;101892.84;;;14.17;76.32
54948;BME280;41113;41.882;12.530;2023-02-19T14:52:54;101893.09;;;14.14;76.59
54948;BME280;41113;41.882;12.530;2023-02-19T14:57:54;101894.22;;;14.12;77.09
54948;BME280;41113;41.882;12.530;2023-02-19T15:02:48;101890.91;;;14.08;77.22
54948;BME280;41113;41.882;12.530;2023-02-19T15:05:20;101892.03;;;14.06;77.34
54948;BME280;41113;41.882;12.530;2023-02-19T15:07:46;101889.59;;;14.02;77.49
54948;BME280;41113;41.882;12.530;2023-02-19T15:10:13;101893.28;;;14.01;77.62
54948;BME280;41113;41.882;12.530;2023-02-19T15:12:45;101893.53;;;13.98;78.15
54948;BME280;41113;41.882;12.530;2023-02-19T15:15:17;101882.97;;;13.95;78.99
54948;BME280;41113;41.882;12.530;2023-02-19T15:17:46;101887.50;;;13.95;78.45
54948;BME280;41113;41.882;12.530;2023-02-19T15:20:17;101885.06;;;13.92;78.60
54948;BME280;41113;41.882;12.530;2023-02-19T15:22:43;101894.28;;;13.89;79.17